createdAt,value
2018-12-25T00:00:25.460Z,0.00
2018-12-25T00:01:32.372Z,0.00
2018-12-25T00:02:27.838Z,0.00
2018-12-25T00:03:33.841Z,0.00
2018-12-25T00:04:32.209Z,0.00
2018-12-25T00:05:41.873Z,0.00
2018-12-25T00:06:28.370Z,0.00
2018-12-25T00:07:26.579Z,0.00
2018-12-25T00:08:29.297Z,0.00
2018-12-25T00:09:30.894Z,0.00
2018-12-25T00:10:27.666Z,0.00
2018-12-25T00:11:27.262Z,0.00
2018-12-25T00:12:30.795Z,0.00
2018-12-25T00:13:31.340Z,0.00
2018-12-25T00:14:29.341Z,0.00
2018-12-25T00:15:28.314Z,0.00
2018-12-25T00:16:35.856Z,0.00
2018-12-25T00:17:29.835Z,0.00
2018-12-25T00:18:44.384Z,0.00
2018-12-25T00:19:30.379Z,0.00
2018-12-25T00:20:33.284Z,0.00
2018-12-25T00:21:30.865Z,0.00
2018-12-25T00:22:29.314Z,0.00
2018-12-25T00:23:29.508Z,0.00
2018-12-25T00:24:29.733Z,0.00
2018-12-25T00:25:31.339Z,0.00
2018-12-25T00:26:30.041Z,0.00
2018-12-25T00:27:30.838Z,0.00
2018-12-25T00:28:32.353Z,0.00
2018-12-25T00:29:38.336Z,0.00
2018-12-25T00:30:30.663Z,0.00
2018-12-25T00:31:32.842Z,0.00
2018-12-25T00:32:32.846Z,0.00
2018-12-25T00:33:34.897Z,0.00
2018-12-25T00:34:32.841Z,0.00
2018-12-25T00:35:33.335Z,0.00
2018-12-25T00:36:32.559Z,0.00
2018-12-25T00:37:31.677Z,0.00
2018-12-25T00:38:33.399Z,0.00
2018-12-25T00:39:32.023Z,0.00
2018-12-25T00:40:33.885Z,0.00
2018-12-25T00:41:35.886Z,0.00
2018-12-25T00:42:34.377Z,0.00
2018-12-25T00:43:34.348Z,0.00
2018-12-25T00:44:32.844Z,0.00
2018-12-25T00:45:34.881Z,0.00
2018-12-25T00:46:33.833Z,0.00
2018-12-25T00:47:33.306Z,0.00
2018-12-25T00:48:35.337Z,0.00
2018-12-25T00:49:38.389Z,0.00
2018-12-25T00:50:45.469Z,0.00
2018-12-25T00:51:33.917Z,0.00
2018-12-25T00:52:34.848Z,0.00
2018-12-25T00:53:35.844Z,0.00
2018-12-25T00:54:34.580Z,0.00
2018-12-25T00:55:39.307Z,0.00
2018-12-25T00:56:34.797Z,0.00
2018-12-25T00:57:36.840Z,0.00
2018-12-25T00:58:35.792Z,0.00
2018-12-25T00:59:38.321Z,0.00
2018-12-25T01:00:35.539Z,0.00
2018-12-25T01:01:37.438Z,0.00
2018-12-25T01:02:37.879Z,0.00
2018-12-25T01:03:37.843Z,0.00
2018-12-25T01:04:36.289Z,0.00
2018-12-25T01:05:38.311Z,0.00
2018-12-25T01:06:52.360Z,0.00
2018-12-25T01:07:44.346Z,0.00
2018-12-25T01:08:38.885Z,0.00
2018-12-25T01:09:49.678Z,0.00
2018-12-25T01:10:37.313Z,0.00
2018-12-25T01:11:37.382Z,0.00
2018-12-25T01:12:38.613Z,0.00
2018-12-25T01:13:39.339Z,0.00
2018-12-25T01:14:39.843Z,0.00
2018-12-25T01:15:42.830Z,0.00
2018-12-25T01:16:39.836Z,0.00
2018-12-25T01:17:40.349Z,0.00
2018-12-25T01:18:42.337Z,0.00
2018-12-25T01:19:41.147Z,0.00
2018-12-25T01:20:38.809Z,0.00
2018-12-25T01:21:41.468Z,0.00
2018-12-25T01:22:42.839Z,0.00
2018-12-25T01:23:40.977Z,0.00
2018-12-25T01:24:47.341Z,0.00
2018-12-25T01:26:02.291Z,0.00
2018-12-25T01:26:43.384Z,0.00
2018-12-25T01:27:41.857Z,0.00
2018-12-25T01:28:43.863Z,0.00
2018-12-25T01:29:40.312Z,0.00
2018-12-25T01:30:43.814Z,0.00
2018-12-25T01:31:41.662Z,0.00
2018-12-25T01:32:40.877Z,0.00
2018-12-25T01:33:42.889Z,0.00
2018-12-25T01:34:42.846Z,0.00
2018-12-25T01:35:43.381Z,0.00
2018-12-25T01:36:41.617Z,0.00
2018-12-25T01:38:04.338Z,0.00
2018-12-25T01:38:43.870Z,0.00
2018-12-25T01:39:42.133Z,0.00
2018-12-25T01:40:57.836Z,0.00
2018-12-25T01:41:48.520Z,0.00
2018-12-25T01:42:42.728Z,0.00
2018-12-25T01:43:44.838Z,0.00
2018-12-25T01:44:43.042Z,0.00
2018-12-25T01:45:44.840Z,0.00
2018-12-25T01:46:46.043Z,0.00
2018-12-25T01:47:45.337Z,0.00
2018-12-25T01:48:45.338Z,0.00
2018-12-25T01:49:44.805Z,0.00
2018-12-25T01:50:44.002Z,0.00
2018-12-25T01:51:59.838Z,0.00
2018-12-25T01:52:45.841Z,0.00
2018-12-25T01:53:44.544Z,0.00
2018-12-25T01:54:44.756Z,0.00
2018-12-25T01:55:46.837Z,0.00
2018-12-25T01:56:46.100Z,0.00
2018-12-25T01:57:51.880Z,0.00
2018-12-25T01:59:00.840Z,0.00
2018-12-25T02:00:14.334Z,0.00
2018-12-25T02:00:47.299Z,0.00
2018-12-25T02:01:45.772Z,0.00
2018-12-25T02:02:51.975Z,0.00
2018-12-25T02:03:50.257Z,0.00
2018-12-25T02:04:50.345Z,0.00
2018-12-25T02:05:48.340Z,0.00
2018-12-25T02:06:48.527Z,0.00
2018-12-25T02:07:52.869Z,0.00
2018-12-25T02:08:49.368Z,0.00
2018-12-25T02:09:47.257Z,0.00
2018-12-25T02:10:47.424Z,0.00
2018-12-25T02:11:49.343Z,0.00
2018-12-25T02:12:47.680Z,0.00
2018-12-25T02:13:51.871Z,0.00
2018-12-25T02:14:51.835Z,0.00
2018-12-25T02:15:50.856Z,0.00
2018-12-25T02:16:51.360Z,0.00
2018-12-25T02:17:50.338Z,0.00
2018-12-25T02:18:49.439Z,0.00
2018-12-25T02:19:53.806Z,0.00
2018-12-25T02:20:49.136Z,0.00
2018-12-25T02:21:50.840Z,0.00
2018-12-25T02:22:49.549Z,0.00
2018-12-25T02:23:49.761Z,0.00
2018-12-25T02:26:23.632Z,0.00
2018-12-25T02:27:23.592Z,0.00
2018-12-25T02:28:22.176Z,0.00
2018-12-25T02:29:24.092Z,0.00
2018-12-25T02:30:22.533Z,0.00
2018-12-25T02:31:23.801Z,0.00
2018-12-25T02:32:38.588Z,0.00
2018-12-25T02:33:25.590Z,0.00
2018-12-25T02:34:52.100Z,0.00
2018-12-25T02:35:31.089Z,0.00
2018-12-25T02:36:44.534Z,0.00
2018-12-25T02:37:25.616Z,0.00
2018-12-25T02:39:01.540Z,0.00
2018-12-25T02:39:25.587Z,0.00
2018-12-25T02:40:31.091Z,0.00
2018-12-25T02:41:24.299Z,0.00
2018-12-25T02:42:40.115Z,0.00
2018-12-25T02:43:48.687Z,0.00
2018-12-25T02:44:30.618Z,0.00
2018-12-25T02:45:25.062Z,0.00
2018-12-25T02:46:27.147Z,0.00
2018-12-25T02:47:27.092Z,0.00
2018-12-25T02:48:25.533Z,0.00
2018-12-25T02:49:27.609Z,0.00
2018-12-25T02:50:27.627Z,0.00
2018-12-25T02:51:26.099Z,0.00
2018-12-25T02:52:30.092Z,0.00
2018-12-25T02:53:28.123Z,0.00
2018-12-25T02:54:42.542Z,0.00
2018-12-25T02:55:30.588Z,0.00
2018-12-25T02:56:28.754Z,0.00
2018-12-25T02:57:27.217Z,0.00
2018-12-25T02:58:43.095Z,0.00
2018-12-25T02:59:29.091Z,0.00
2018-12-25T03:00:34.547Z,0.00
2018-12-25T03:01:29.599Z,0.00
2018-12-25T03:02:30.581Z,0.00
2018-12-25T03:03:29.612Z,0.00
2018-12-25T03:04:36.113Z,0.00
2018-12-25T03:05:29.575Z,0.00
2018-12-25T03:06:30.041Z,0.00
2018-12-25T03:07:31.559Z,0.00
2018-12-25T03:08:28.752Z,0.00
2018-12-25T03:09:30.587Z,0.00
2018-12-25T03:10:32.061Z,0.00
2018-12-25T03:11:31.096Z,0.00
2018-12-25T03:12:37.085Z,0.00
2018-12-25T03:13:33.478Z,0.00
2018-12-25T03:14:29.675Z,0.00
2018-12-25T03:15:29.904Z,0.00
2018-12-25T03:16:30.001Z,0.00
2018-12-25T03:17:32.096Z,0.00
2018-12-25T03:18:30.466Z,0.00
2018-12-25T03:19:32.595Z,0.00
2018-12-25T03:20:34.625Z,0.00
2018-12-25T03:21:34.581Z,0.00
2018-12-25T03:22:32.043Z,0.00
2018-12-25T03:23:31.392Z,0.00
2018-12-25T03:24:33.083Z,0.00
2018-12-25T03:25:47.605Z,0.00
2018-12-25T03:26:33.586Z,0.00
2018-12-25T03:27:32.038Z,0.00
2018-12-25T03:28:36.610Z,0.00
2018-12-25T03:29:34.117Z,0.00
2018-12-25T03:30:57.090Z,0.00
2018-12-25T03:31:34.608Z,0.00
2018-12-25T03:32:33.022Z,0.00
2018-12-25T03:33:33.113Z,0.00
2018-12-25T03:34:35.096Z,0.00
2018-12-25T03:35:35.141Z,0.00
2018-12-25T03:36:38.616Z,0.00
2018-12-25T03:37:35.597Z,0.00
2018-12-25T03:38:34.029Z,0.00
2018-12-25T03:39:36.104Z,0.00
2018-12-25T03:40:37.093Z,0.00
2018-12-25T03:41:36.089Z,0.00
2018-12-25T03:42:34.710Z,0.00
2018-12-25T03:43:42.598Z,0.00
2018-12-25T03:44:37.571Z,0.00
2018-12-25T03:45:39.087Z,0.00
2018-12-25T03:46:43.149Z,0.00
2018-12-25T03:47:39.085Z,0.00
2018-12-25T03:48:36.680Z,0.00
2018-12-25T03:49:40.546Z,0.00
2018-12-25T03:50:36.556Z,0.00
2018-12-25T03:51:36.772Z,0.00
2018-12-25T03:53:02.080Z,0.00
2018-12-25T03:53:38.090Z,0.00
2018-12-25T03:54:37.701Z,0.00
2018-12-25T03:55:42.040Z,0.00
2018-12-25T03:56:38.587Z,0.00
2018-12-25T03:57:38.346Z,0.00
2018-12-25T03:58:39.095Z,0.00
2018-12-25T03:59:39.112Z,0.00
2018-12-25T04:00:37.678Z,0.00
2018-12-25T04:01:41.595Z,0.00
2018-12-25T04:02:39.639Z,0.00
2018-12-25T04:03:41.051Z,0.00
2018-12-25T04:04:40.339Z,0.00
2018-12-25T04:05:42.148Z,0.00
2018-12-25T04:06:40.593Z,0.00
2018-12-25T04:07:38.805Z,0.00
2018-12-25T04:08:54.626Z,0.00
2018-12-25T04:09:43.091Z,0.00
2018-12-25T04:10:39.461Z,0.00
2018-12-25T04:11:40.571Z,0.00
2018-12-25T04:12:39.785Z,0.00
2018-12-25T04:14:04.599Z,0.00
2018-12-25T04:14:44.098Z,0.00
2018-12-25T04:15:42.093Z,0.00
2018-12-25T04:16:44.088Z,0.00
2018-12-25T04:17:47.096Z,0.00
2018-12-25T04:18:57.025Z,0.00
2018-12-25T04:19:42.606Z,0.00
2018-12-25T04:20:44.591Z,0.00
2018-12-25T04:21:45.885Z,0.00
2018-12-25T04:22:44.160Z,0.00
2018-12-25T04:23:42.042Z,0.00
2018-12-25T04:24:42.937Z,0.00
2018-12-25T04:25:44.536Z,0.00
2018-12-25T04:26:45.594Z,0.00
2018-12-25T04:27:48.631Z,0.00
2018-12-25T04:28:44.095Z,0.00
2018-12-25T04:29:43.337Z,0.00
2018-12-25T04:30:54.589Z,0.00
2018-12-25T04:31:44.589Z,0.00
2018-12-25T04:32:44.567Z,0.00
2018-12-25T04:33:43.956Z,0.00
2018-12-25T04:34:43.057Z,0.00
2018-12-25T04:35:45.084Z,0.00
2018-12-25T04:37:39.054Z,0.00
2018-12-25T04:38:39.101Z,0.00
2018-12-25T04:39:38.943Z,0.00
2018-12-25T04:40:37.568Z,0.00
2018-12-25T04:41:36.024Z,0.00
2018-12-25T04:42:38.093Z,0.00
2018-12-25T04:43:40.106Z,0.00
2018-12-25T04:44:40.557Z,0.00
2018-12-25T04:45:37.761Z,0.00
2018-12-25T04:46:59.563Z,0.00
2018-12-25T04:47:39.056Z,0.00
2018-12-25T04:48:37.248Z,0.00
2018-12-25T04:49:40.548Z,0.00
2018-12-25T04:50:38.700Z,0.00
2018-12-25T04:51:39.501Z,0.00
2018-12-25T04:52:39.013Z,0.00
2018-12-25T04:54:01.071Z,0.00
2018-12-25T04:54:42.223Z,0.00
2018-12-25T04:55:38.470Z,0.00
2018-12-25T04:56:42.580Z,0.00
2018-12-25T04:57:40.553Z,0.00
2018-12-25T04:58:39.004Z,0.00
2018-12-25T04:59:42.086Z,0.00
2018-12-25T05:00:40.444Z,0.00
2018-12-25T05:01:39.560Z,0.00
2018-12-25T05:02:43.556Z,0.00
2018-12-25T05:03:43.551Z,0.00
2018-12-25T05:04:45.077Z,0.00
2018-12-25T05:05:44.055Z,0.00
2018-12-25T05:06:40.545Z,0.00
2018-12-25T05:07:42.563Z,0.00
2018-12-25T05:08:40.761Z,0.00
2018-12-25T05:09:42.572Z,0.00
2018-12-25T05:10:41.152Z,0.00
2018-12-25T05:11:41.372Z,0.00
2018-12-25T05:12:43.051Z,0.00
2018-12-25T05:13:43.572Z,0.00
2018-12-25T05:14:41.755Z,0.00
2018-12-25T05:15:41.992Z,0.00
2018-12-25T05:16:42.176Z,0.00
2018-12-25T05:17:42.371Z,0.00
2018-12-25T05:18:49.587Z,0.00
2018-12-25T05:19:43.504Z,0.00
2018-12-25T05:20:49.514Z,0.00
2018-12-25T05:21:45.087Z,0.00
2018-12-25T05:22:51.051Z,0.00
2018-12-25T05:23:47.052Z,0.00
2018-12-25T05:24:43.677Z,0.00
2018-12-25T05:25:45.561Z,0.00
2018-12-25T05:26:45.556Z,0.00
2018-12-25T05:27:59.582Z,0.00
2018-12-25T05:28:44.113Z,0.00
2018-12-25T05:29:46.147Z,0.00
2018-12-25T05:30:52.075Z,0.00
2018-12-25T05:31:46.556Z,0.00
2018-12-25T05:32:52.551Z,0.00
2018-12-25T05:33:46.023Z,0.00
2018-12-25T05:34:49.056Z,0.00
2018-12-25T05:35:47.030Z,0.00
2018-12-25T05:36:45.521Z,0.00
2018-12-25T05:37:45.600Z,0.00
2018-12-25T05:38:45.813Z,0.00
2018-12-25T05:39:47.567Z,0.00
2018-12-25T05:40:48.053Z,0.00
2018-12-25T05:41:46.260Z,0.00
2018-12-25T05:42:46.455Z,0.00
2018-12-25T05:43:47.702Z,0.00
2018-12-25T05:44:53.566Z,0.00
2018-12-25T05:45:49.525Z,0.00
2018-12-25T05:46:59.296Z,0.00
2018-12-25T05:47:47.273Z,0.00
2018-12-25T05:48:59.079Z,0.00
2018-12-25T05:49:51.050Z,0.00
2018-12-25T05:50:51.555Z,0.00
2018-12-25T05:51:47.844Z,0.00
2018-12-25T05:52:49.604Z,0.00
2018-12-25T05:53:50.613Z,0.00
2018-12-25T05:54:51.093Z,0.00
2018-12-25T05:55:50.067Z,0.00
2018-12-25T05:56:48.675Z,0.00
2018-12-25T05:57:52.554Z,0.00
2018-12-25T05:58:52.902Z,0.00
2018-12-25T05:59:49.103Z,0.00
2018-12-25T06:00:49.209Z,0.00
2018-12-25T06:01:50.416Z,0.00
2018-12-25T06:02:51.576Z,0.00
2018-12-25T06:03:49.785Z,0.00
2018-12-25T06:04:51.588Z,0.00
2018-12-25T06:05:50.132Z,0.00
2018-12-25T06:06:52.547Z,0.00
2018-12-25T06:07:54.105Z,0.00
2018-12-25T06:08:52.551Z,0.00
2018-12-25T06:09:52.603Z,0.00
2018-12-25T06:10:53.066Z,0.00
2018-12-25T06:11:53.059Z,0.00
2018-12-25T06:12:51.462Z,0.00
2018-12-25T06:13:51.607Z,0.00
2018-12-25T06:14:52.718Z,0.00
2018-12-25T06:15:51.860Z,0.00
2018-12-25T06:16:53.582Z,0.00
2018-12-25T06:18:03.246Z,0.00
2018-12-25T06:18:54.081Z,0.00
2018-12-25T06:19:56.052Z,0.00
2018-12-25T06:20:55.183Z,0.00
2018-12-25T06:21:53.906Z,0.00
2018-12-25T06:22:54.681Z,0.00
2018-12-25T06:24:01.072Z,0.00
2018-12-25T06:24:56.018Z,0.00
2018-12-25T06:25:53.728Z,0.00
2018-12-25T06:26:57.573Z,0.00
2018-12-25T06:27:54.133Z,0.00
2018-12-25T06:28:56.555Z,0.00
2018-12-25T06:29:55.164Z,0.00
2018-12-25T06:30:56.553Z,0.00
2018-12-25T06:31:56.584Z,0.00
2018-12-25T06:33:03.513Z,0.00
2018-12-25T06:33:55.250Z,0.00
2018-12-25T06:34:57.055Z,0.00
2018-12-25T06:35:59.061Z,0.00
2018-12-25T06:36:56.675Z,0.00
2018-12-25T06:37:59.002Z,0.00
2018-12-25T06:39:11.558Z,0.00
2018-12-25T06:39:59.108Z,0.00
2018-12-25T06:41:17.313Z,0.00
2018-12-25T06:41:58.009Z,0.00
2018-12-25T06:42:56.770Z,0.00
2018-12-25T06:44:01.301Z,0.00
2018-12-25T06:45:01.060Z,0.00
2018-12-25T06:46:04.089Z,0.00
2018-12-25T06:46:57.418Z,0.00
2018-12-25T06:47:59.577Z,0.00
2018-12-25T06:49:00.516Z,0.00
2018-12-25T06:49:58.513Z,0.00
2018-12-25T06:51:14.559Z,0.00
2018-12-25T06:52:19.336Z,0.00
2018-12-25T06:53:14.382Z,0.00
2018-12-25T06:54:00.560Z,0.00
2018-12-25T06:54:59.903Z,0.00
2018-12-25T06:56:06.062Z,0.00
2018-12-25T06:57:03.082Z,0.00
2018-12-25T06:58:01.056Z,0.00
2018-12-25T06:59:02.028Z,0.00
2018-12-25T06:59:59.882Z,0.00
2018-12-25T07:01:00.980Z,0.00
2018-12-25T07:02:00.063Z,0.00
2018-12-25T07:03:02.505Z,0.00
2018-12-25T07:04:08.049Z,0.00
2018-12-25T07:05:03.619Z,0.00
2018-12-25T07:06:02.557Z,0.00
2018-12-25T07:07:02.567Z,0.00
2018-12-25T07:08:01.201Z,0.00
2018-12-25T07:09:04.004Z,0.00
2018-12-25T07:10:01.498Z,0.00
2018-12-25T07:11:09.615Z,0.00
2018-12-25T07:12:01.721Z,0.00
2018-12-25T07:13:04.534Z,0.00
2018-12-25T07:14:02.020Z,0.00
2018-12-25T07:15:04.090Z,0.00
2018-12-25T07:16:19.148Z,0.00
2018-12-25T07:17:09.092Z,0.00
2018-12-25T07:18:04.613Z,0.00
2018-12-25T07:19:02.842Z,0.00
2018-12-25T07:20:18.581Z,0.00
2018-12-25T07:21:03.254Z,0.00
2018-12-25T07:22:05.053Z,0.00
2018-12-25T07:23:08.552Z,0.00
2018-12-25T07:25:37.445Z,0.00
2018-12-25T07:26:38.360Z,0.00
2018-12-25T07:27:37.881Z,0.00
2018-12-25T07:28:57.211Z,0.00
2018-12-25T07:29:38.389Z,0.00
2018-12-25T07:31:01.623Z,0.00
2018-12-25T07:31:38.454Z,5.63
2018-12-25T07:32:38.884Z,5.63
2018-12-25T07:33:37.833Z,5.63
2018-12-25T07:34:41.853Z,5.63
2018-12-25T07:35:38.877Z,5.63
2018-12-25T07:36:41.399Z,5.63
2018-12-25T07:37:39.374Z,5.63
2018-12-25T07:38:39.419Z,11.25
2018-12-25T07:39:44.892Z,11.25
2018-12-25T07:40:39.257Z,11.25
2018-12-25T07:41:40.379Z,11.25
2018-12-25T07:42:42.423Z,16.88
2018-12-25T07:43:39.677Z,16.88
2018-12-25T07:44:43.327Z,16.88
2018-12-25T07:45:39.088Z,16.88
2018-12-25T07:46:41.269Z,22.50
2018-12-25T07:47:39.422Z,22.50
2018-12-25T07:48:39.586Z,22.50
2018-12-25T07:49:41.398Z,28.13
2018-12-25T07:50:45.896Z,28.13
2018-12-25T07:51:41.875Z,28.13
2018-12-25T07:52:42.863Z,28.13
2018-12-25T07:53:40.345Z,33.75
2018-12-25T07:54:40.575Z,33.75
2018-12-25T07:55:43.328Z,33.75
2018-12-25T07:56:42.906Z,33.75
2018-12-25T07:57:41.107Z,33.75
2018-12-25T07:58:44.921Z,33.75
2018-12-25T07:59:46.319Z,33.75
2018-12-25T08:00:44.403Z,28.13
2018-12-25T08:01:55.056Z,28.13
2018-12-25T08:06:00.402Z,39.38
2018-12-25T08:07:08.015Z,45.00
2018-12-25T08:08:11.854Z,45.00
2018-12-25T08:09:02.603Z,39.38
2018-12-25T08:09:49.970Z,39.38
2018-12-25T08:11:23.915Z,45.00
2018-12-25T08:14:02.011Z,56.25
2018-12-25T08:14:20.995Z,56.25
2018-12-25T08:15:22.706Z,56.25
2018-12-25T08:16:26.639Z,50.63
2018-12-25T08:17:19.255Z,50.63
2018-12-25T08:18:24.201Z,50.63
2018-12-25T08:19:42.505Z,45.00
2018-12-25T08:20:42.142Z,50.63
2018-12-25T08:21:35.690Z,50.63
2018-12-25T08:22:20.011Z,56.25
2018-12-25T08:23:24.238Z,56.25
2018-12-25T08:24:21.193Z,50.63
2018-12-25T08:25:37.648Z,50.63
2018-12-25T08:26:21.858Z,45.00
2018-12-25T08:27:27.161Z,45.00
2018-12-25T08:28:26.190Z,39.38
2018-12-25T08:29:23.437Z,39.38
2018-12-25T08:30:28.723Z,39.38
2018-12-25T08:31:44.665Z,39.38
2018-12-25T08:32:24.880Z,45.00
2018-12-25T08:33:46.290Z,50.63
2018-12-25T08:34:30.628Z,50.63
2018-12-25T08:35:26.651Z,56.25
2018-12-25T08:36:24.201Z,56.25
2018-12-25T08:37:22.969Z,56.25
2018-12-25T08:38:28.724Z,56.25
2018-12-25T08:39:23.925Z,56.25
2018-12-25T08:40:25.147Z,56.25
2018-12-25T08:41:46.344Z,56.25
2018-12-25T08:42:25.195Z,56.25
2018-12-25T08:43:28.160Z,56.25
2018-12-25T08:44:35.921Z,56.25
2018-12-25T08:45:53.688Z,61.88
2018-12-25T08:46:26.575Z,67.50
2018-12-25T08:47:26.198Z,73.13
2018-12-25T08:48:26.190Z,73.13
2018-12-25T08:49:28.189Z,73.13
2018-12-25T08:50:28.658Z,73.13
2018-12-25T08:51:25.165Z,73.13
2018-12-25T08:52:48.279Z,84.38
2018-12-25T08:53:27.645Z,90.00
2018-12-25T08:54:27.227Z,90.00
2018-12-25T08:55:30.485Z,90.00
2018-12-25T08:56:27.015Z,95.63
2018-12-25T08:57:27.693Z,95.63
2018-12-25T08:58:34.186Z,78.75
2018-12-25T08:59:29.185Z,73.13
2018-12-25T09:00:28.351Z,78.75
2018-12-25T09:01:30.695Z,78.75
2018-12-25T09:02:30.690Z,73.13
2018-12-25T09:03:27.030Z,78.75
2018-12-25T09:04:29.505Z,84.38
2018-12-25T09:05:29.193Z,84.38
2018-12-25T09:06:28.144Z,95.63
2018-12-25T09:07:28.876Z,101.25
2018-12-25T09:08:34.770Z,106.88
2018-12-25T09:09:29.724Z,118.13
2018-12-25T09:10:42.745Z,123.75
2018-12-25T09:11:29.344Z,123.75
2018-12-25T09:12:32.189Z,123.75
2018-12-25T09:13:29.776Z,123.75
2018-12-25T09:14:51.655Z,129.38
2018-12-25T09:15:31.690Z,140.63
2018-12-25T09:16:31.196Z,146.25
2018-12-25T09:17:30.413Z,157.50
2018-12-25T09:18:33.205Z,163.13
2018-12-25T09:19:35.187Z,168.75
2018-12-25T09:20:33.699Z,163.13
2018-12-25T09:21:31.691Z,174.38
2018-12-25T09:22:36.733Z,191.25
2018-12-25T09:23:31.150Z,219.38
2018-12-25T09:24:31.005Z,219.38
2018-12-25T09:25:31.711Z,236.25
2018-12-25T09:26:30.904Z,241.88
2018-12-25T09:27:31.101Z,270.00
2018-12-25T09:28:33.222Z,303.75
2018-12-25T09:29:31.480Z,354.38
2018-12-25T09:30:39.232Z,410.63
2018-12-25T09:31:31.794Z,438.75
2018-12-25T09:32:34.302Z,472.50
2018-12-25T09:33:55.250Z,495.00
2018-12-25T09:34:35.190Z,511.88
2018-12-25T09:35:32.554Z,506.25
2018-12-25T09:36:36.195Z,478.13
2018-12-25T09:37:34.688Z,438.75
2018-12-25T09:38:34.690Z,410.63
2018-12-25T09:39:33.106Z,399.38
2018-12-25T09:40:34.690Z,376.88
2018-12-25T09:41:37.144Z,348.75
2018-12-25T09:42:33.604Z,326.25
2018-12-25T09:43:34.822Z,303.75
2018-12-25T09:44:58.691Z,292.50
2018-12-25T09:45:57.191Z,298.13
2018-12-25T09:46:36.192Z,303.75
2018-12-25T09:47:36.214Z,298.13
2018-12-25T09:48:36.192Z,286.88
2018-12-25T09:49:36.690Z,253.13
2018-12-25T09:50:38.690Z,241.88
2018-12-25T09:51:36.689Z,230.63
2018-12-25T09:52:35.281Z,225.00
2018-12-25T09:53:59.232Z,241.88
2018-12-25T09:54:37.203Z,253.13
2018-12-25T09:55:37.754Z,258.75
2018-12-25T09:56:37.718Z,253.13
2018-12-25T09:57:39.688Z,253.13
2018-12-25T09:58:44.187Z,241.88
2018-12-25T09:59:36.528Z,225.00
2018-12-25T10:00:38.298Z,208.13
2018-12-25T10:01:40.717Z,225.00
2018-12-25T10:02:40.733Z,253.13
2018-12-25T10:03:39.187Z,270.00
2018-12-25T10:04:37.390Z,292.50
2018-12-25T10:05:39.219Z,315.00
2018-12-25T10:06:37.862Z,354.38
2018-12-25T10:07:41.879Z,376.88
2018-12-25T10:08:39.702Z,399.38
2018-12-25T10:09:39.312Z,427.50
2018-12-25T10:10:40.188Z,421.88
2018-12-25T10:11:44.269Z,410.63
2018-12-25T10:12:39.735Z,455.63
2018-12-25T10:13:40.750Z,534.38
2018-12-25T10:14:42.687Z,669.38
2018-12-25T10:15:39.264Z,748.13
2018-12-25T10:16:41.189Z,821.25
2018-12-25T10:17:39.643Z,939.38
2018-12-25T10:18:41.716Z,1074.38
2018-12-25T10:19:40.063Z,1220.63
2018-12-25T10:21:01.289Z,1513.13
2018-12-25T10:21:44.204Z,1631.25
2018-12-25T10:22:42.187Z,1411.88
2018-12-25T10:23:44.881Z,1507.50
2018-12-25T10:24:40.958Z,1344.38
2018-12-25T10:25:42.738Z,1878.75
2018-12-25T10:26:43.191Z,1867.50
2018-12-25T10:27:41.566Z,1597.50
2018-12-25T10:28:41.676Z,2435.63
2018-12-25T10:29:43.856Z,1766.25
2018-12-25T10:30:42.067Z,669.38
2018-12-25T10:31:42.299Z,433.13
2018-12-25T10:32:44.196Z,331.88
2018-12-25T10:33:42.660Z,264.38
2018-12-25T10:34:42.868Z,236.25
2018-12-25T10:35:44.710Z,230.63
2018-12-25T10:36:43.168Z,236.25
2018-12-25T10:37:44.375Z,253.13
2018-12-25T10:38:45.195Z,264.38
2018-12-25T10:39:45.751Z,281.25
2018-12-25T10:40:43.915Z,348.75
2018-12-25T10:41:45.690Z,438.75
2018-12-25T10:42:48.204Z,517.50
2018-12-25T10:43:46.193Z,579.38
2018-12-25T10:44:45.540Z,630.00
2018-12-25T10:45:46.694Z,1642.50
2018-12-25T10:46:44.904Z,725.63
2018-12-25T10:47:46.701Z,686.25
2018-12-25T10:48:47.196Z,585.00
2018-12-25T10:49:47.236Z,478.13
2018-12-25T10:50:46.595Z,393.75
2018-12-25T10:51:45.824Z,354.38
2018-12-25T10:52:49.709Z,326.25
2018-12-25T10:53:46.029Z,298.13
2018-12-25T10:54:52.229Z,281.25
2018-12-25T10:55:46.442Z,275.63
2018-12-25T10:56:46.647Z,309.38
2018-12-25T10:57:48.712Z,371.25
2018-12-25T11:00:21.674Z,483.75
2018-12-25T11:01:22.666Z,466.88
2018-12-25T11:02:20.683Z,421.88
2018-12-25T11:03:21.170Z,410.63
2018-12-25T11:04:35.166Z,421.88
2018-12-25T11:05:19.500Z,376.88
2018-12-25T11:06:42.696Z,365.63
2018-12-25T11:07:23.674Z,315.00
2018-12-25T11:08:21.679Z,286.88
2018-12-25T11:09:31.370Z,258.75
2018-12-25T11:10:22.170Z,230.63
2018-12-25T11:11:20.619Z,225.00
2018-12-25T11:12:24.669Z,208.13
2018-12-25T11:13:27.691Z,202.50
2018-12-25T11:14:23.123Z,196.88
2018-12-25T11:15:48.209Z,185.63
2018-12-25T11:16:22.488Z,174.38
2018-12-25T11:17:21.740Z,174.38
2018-12-25T11:18:21.894Z,180.00
2018-12-25T11:19:22.104Z,174.38
2018-12-25T11:20:22.339Z,151.88
2018-12-25T11:21:26.216Z,151.88
2018-12-25T11:22:28.648Z,163.13
2018-12-25T11:23:22.747Z,185.63
2018-12-25T11:24:25.624Z,185.63
2018-12-25T11:25:24.683Z,180.00
2018-12-25T11:26:27.172Z,174.38
2018-12-25T11:27:27.963Z,174.38
2018-12-25T11:28:25.184Z,180.00
2018-12-25T11:29:23.654Z,174.38
2018-12-25T11:30:27.677Z,185.63
2018-12-25T11:31:30.694Z,191.25
2018-12-25T11:32:25.666Z,168.75
2018-12-25T11:33:25.284Z,140.63
2018-12-25T11:34:26.174Z,129.38
2018-12-25T11:35:24.492Z,129.38
2018-12-25T11:36:26.693Z,135.00
2018-12-25T11:37:26.678Z,135.00
2018-12-25T11:38:28.670Z,140.63
2018-12-25T11:39:25.124Z,140.63
2018-12-25T11:40:27.171Z,129.38
2018-12-25T11:41:26.536Z,129.38
2018-12-25T11:42:29.707Z,123.75
2018-12-25T11:43:32.673Z,118.13
2018-12-25T11:44:27.675Z,123.75
2018-12-25T11:45:26.256Z,118.13
2018-12-25T11:46:32.449Z,123.75
2018-12-25T11:47:28.175Z,129.38
2018-12-25T11:48:30.674Z,129.38
2018-12-25T11:49:27.016Z,123.75
2018-12-25T11:50:27.229Z,135.00
2018-12-25T11:51:27.450Z,146.25
2018-12-25T11:52:29.195Z,151.88
2018-12-25T11:53:27.821Z,146.25
2018-12-25T11:54:43.667Z,135.00
2018-12-25T11:55:29.686Z,135.00
2018-12-25T11:56:28.275Z,140.63
2018-12-25T11:57:28.477Z,151.88
2018-12-25T11:58:30.699Z,146.25
2018-12-25T11:59:28.924Z,151.88
2018-12-25T12:00:30.669Z,151.88
2018-12-25T12:01:31.169Z,157.50
2018-12-25T12:02:33.212Z,163.13
2018-12-25T12:03:29.498Z,157.50
2018-12-25T12:04:35.693Z,157.50
2018-12-25T12:05:31.679Z,157.50
2018-12-25T12:06:33.671Z,151.88
2018-12-25T12:07:30.122Z,140.63
2018-12-25T12:08:32.203Z,135.00
2018-12-25T12:09:32.171Z,146.25
2018-12-25T12:10:32.738Z,140.63
2018-12-25T12:11:37.672Z,146.25
2018-12-25T12:12:32.717Z,140.63
2018-12-25T12:13:32.301Z,140.63
2018-12-25T12:14:37.501Z,140.63
2018-12-25T12:15:33.723Z,140.63
2018-12-25T12:16:31.885Z,140.63
2018-12-25T12:17:33.912Z,140.63
2018-12-25T12:18:34.176Z,151.88
2018-12-25T12:19:32.372Z,163.13
2018-12-25T12:20:38.620Z,168.75
2018-12-25T12:21:34.670Z,174.38
2018-12-25T12:22:36.899Z,180.00
2018-12-25T12:23:36.686Z,174.38
2018-12-25T12:24:35.173Z,180.00
2018-12-25T12:25:40.176Z,174.38
2018-12-25T12:26:35.196Z,163.13
2018-12-25T12:27:37.358Z,157.50
2018-12-25T12:28:35.669Z,157.50
2018-12-25T12:29:34.131Z,157.50
2018-12-25T12:30:35.396Z,157.50
2018-12-25T12:31:36.174Z,151.88
2018-12-25T12:32:34.765Z,151.88
2018-12-25T12:33:36.723Z,157.50
2018-12-25T12:34:36.668Z,157.50
2018-12-25T12:35:36.398Z,163.13
2018-12-25T12:36:37.171Z,163.13
2018-12-25T12:37:37.790Z,157.50
2018-12-25T12:38:35.940Z,163.13
2018-12-25T12:39:37.669Z,163.13
2018-12-25T12:40:37.247Z,180.00
2018-12-25T12:41:40.175Z,180.00
2018-12-25T12:42:39.187Z,168.75
2018-12-25T12:43:40.668Z,168.75
2018-12-25T12:44:40.669Z,174.38
2018-12-25T12:45:37.132Z,163.13
2018-12-25T12:46:37.338Z,151.88
2018-12-25T12:47:40.150Z,151.88
2018-12-25T12:48:39.700Z,151.88
2018-12-25T12:49:38.915Z,146.25
2018-12-25T12:50:39.683Z,140.63
2018-12-25T12:51:40.169Z,135.00
2018-12-25T12:52:45.232Z,135.00
2018-12-25T12:53:40.184Z,123.75
2018-12-25T12:54:38.786Z,118.13
2018-12-25T12:55:38.999Z,118.13
2018-12-25T12:56:41.172Z,118.13
2018-12-25T12:57:39.389Z,129.38
2018-12-25T12:59:00.595Z,129.38
2018-12-25T12:59:41.672Z,123.75
2018-12-25T13:00:40.009Z,129.38
2018-12-25T13:01:44.166Z,123.75
2018-12-25T13:03:03.187Z,123.75
2018-12-25T13:03:40.522Z,123.75
2018-12-25T13:04:40.646Z,112.50
2018-12-25T13:05:40.749Z,112.50
2018-12-25T13:06:41.974Z,112.50
2018-12-25T13:07:41.184Z,112.50
2018-12-25T13:08:43.185Z,106.88
2018-12-25T13:09:43.177Z,106.88
2018-12-25T13:10:45.175Z,112.50
2018-12-25T13:11:41.743Z,112.50